Decoded Metar for YSTW (TAMWORTH in AUSTRALIA) (IATA:TMW) | Meteo·Mobile Aviation Weather
aviador You're here:

YSTW Decoded Metar

TAMWORTH in AUSTRALIA
Report Time2018-10-20 20:00:00
UTC Time2018-10-20 20:08:17
Flight Rules mvfr MVFR
Wind360° at 05 kt
W.Decomp.*RWY 36: 4.9 kt HW 1 kt LCW
RWY 30: 3.3 kt HW 3.8 kt RCW
RWY 06: 1.6 kt HW 4.7 kt LCW
Visibility7000 m
Phenomena:N/A
Clouds:Overcast 030 Hf
Expected CloudBase > 800 ft AGL from Temp-Dew spread
Ceiling3,000 ft
Temp17°C (ISA +5)
Dew Point15°C (88% RH)
AAT16.8°C
QNH1016 hPa
Density Alt2,024 ft
Elevation1,345 ft
Report Wrong Elevation
Raw Report
METAR YSTW 202000Z AUTO 36005KT 7000 // OVC030 17/15 Q1016=

Extra information for YSTW:More info

Metar Taf Metar & Taf Last 4 Metars F.Rules Stats Wind Profile Meteogram Temp Stats Airport Information Weather charts Add Link Nearby VenuesMetar ALERT Operation Metar Decoded Social comments